<?xml version="1.0" encoding="UTF-8" standalone="no" ?>
<gpx xmlns="http://www.topografix.com/GPX/1/1" xmlns:xsi="http://www.w3.org/2001/XMLSchema-instance" xsi:schemaLocation="http://www.topografix.com/GPX/1/1 http://www.topografix.com/GPX/1/1/gpx.xsd" version="1.1" creator="VisuGPX - https://www.visugpx.com">
  <metadata>
    <name>112011</name>
    <desc><![CDATA[très agréable sortie 24.5]]></desc>
  </metadata>
  <trk>
    <name><![CDATA[ACTIVE LOG091437]]></name>
    <trkseg>
      <trkpt lat="48.42441" lon="-4.47307">
        <ele>83.604</ele>
        <time>2011-04-07T07:14:36Z</time>
      </trkpt>
      <trkpt lat="48.42454" lon="-4.47311">
        <ele>43.165</ele>
        <time>2011-04-07T07:14:38Z</time>
      </trkpt>
      <trkpt lat="48.42459" lon="-4.47308">
        <ele>43.411</ele>
        <time>2011-04-07T07:14:39Z</time>
      </trkpt>
      <trkpt lat="48.4248" lon="-4.47299">
        <ele>48.648</ele>
        <time>2011-04-07T07:14:43Z</time>
      </trkpt>
      <trkpt lat="48.42496" lon="-4.47292">
        <ele>52.118</ele>
        <time>2011-04-07T07:14:46Z</time>
      </trkpt>
      <trkpt lat="48.42512" lon="-4.47285">
        <ele>55.498</ele>
        <time>2011-04-07T07:14:49Z</time>
      </trkpt>
      <trkpt lat="48.42532" lon="-4.47277">
        <ele>59.088</ele>
        <time>2011-04-07T07:14:53Z</time>
      </trkpt>
      <trkpt lat="48.42553" lon="-4.47274">
        <ele>62.414</ele>
        <time>2011-04-07T07:14:57Z</time>
      </trkpt>
      <trkpt lat="48.42563" lon="-4.47276">
        <ele>64.109</ele>
        <time>2011-04-07T07:14:59Z</time>
      </trkpt>
      <trkpt lat="48.42567" lon="-4.47277">
        <ele>65.551</ele>
        <time>2011-04-07T07:15:01Z</time>
      </trkpt>
      <trkpt lat="48.42589" lon="-4.47285">
        <ele>68.161</ele>
        <time>2011-04-07T07:15:05Z</time>
      </trkpt>
      <trkpt lat="48.42596" lon="-4.47292">
        <ele>69.291</ele>
        <time>2011-04-07T07:15:07Z</time>
      </trkpt>
      <trkpt lat="48.4262" lon="-4.47314">
        <ele>71.56</ele>
        <time>2011-04-07T07:15:12Z</time>
      </trkpt>
      <trkpt lat="48.42701" lon="-4.47345">
        <ele>74.922</ele>
        <time>2011-04-07T07:15:26Z</time>
      </trkpt>
      <trkpt lat="48.42739" lon="-4.47358">
        <ele>77.102</ele>
        <time>2011-04-07T07:15:33Z</time>
      </trkpt>
      <trkpt lat="48.42744" lon="-4.4736">
        <ele>78.705</ele>
        <time>2011-04-07T07:15:42Z</time>
      </trkpt>
      <trkpt lat="48.42752" lon="-4.47362">
        <ele>79.845</ele>
        <time>2011-04-07T07:16:00Z</time>
      </trkpt>
      <trkpt lat="48.42759" lon="-4.47368">
        <ele>80.006</ele>
        <time>2011-04-07T07:16:05Z</time>
      </trkpt>
      <trkpt lat="48.42731" lon="-4.47541">
        <ele>82.235</ele>
        <time>2011-04-07T07:16:26Z</time>
      </trkpt>
      <trkpt lat="48.42706" lon="-4.47612">
        <ele>82.351</ele>
        <time>2011-04-07T07:16:35Z</time>
      </trkpt>
      <trkpt lat="48.42723" lon="-4.47646">
        <ele>83.201</ele>
        <time>2011-04-07T07:16:41Z</time>
      </trkpt>
      <trkpt lat="48.42791" lon="-4.47662">
        <ele>83.007</ele>
        <time>2011-04-07T07:16:52Z</time>
      </trkpt>
      <trkpt lat="48.42908" lon="-4.47684">
        <ele>82.898</ele>
        <time>2011-04-07T07:17:10Z</time>
      </trkpt>
      <trkpt lat="48.42974" lon="-4.47697">
        <ele>82.691</ele>
        <time>2011-04-07T07:17:20Z</time>
      </trkpt>
      <trkpt lat="48.43086" lon="-4.47727">
        <ele>79.473</ele>
        <time>2011-04-07T07:17:37Z</time>
      </trkpt>
      <trkpt lat="48.43139" lon="-4.47741">
        <ele>76.015</ele>
        <time>2011-04-07T07:17:44Z</time>
      </trkpt>
      <trkpt lat="48.43191" lon="-4.47754">
        <ele>72.664</ele>
        <time>2011-04-07T07:17:50Z</time>
      </trkpt>
      <trkpt lat="48.432" lon="-4.47756">
        <ele>72.693</ele>
        <time>2011-04-07T07:17:51Z</time>
      </trkpt>
      <trkpt lat="48.43252" lon="-4.47777">
        <ele>69.499</ele>
        <time>2011-04-07T07:17:57Z</time>
      </trkpt>
      <trkpt lat="48.4326" lon="-4.47783">
        <ele>69.259</ele>
        <time>2011-04-07T07:17:58Z</time>
      </trkpt>
      <trkpt lat="48.43285" lon="-4.47802">
        <ele>67.848</ele>
        <time>2011-04-07T07:18:01Z</time>
      </trkpt>
      <trkpt lat="48.43334" lon="-4.47836">
        <ele>70.964</ele>
        <time>2011-04-07T07:18:08Z</time>
      </trkpt>
      <trkpt lat="48.43357" lon="-4.47853">
        <ele>72.809</ele>
        <time>2011-04-07T07:18:13Z</time>
      </trkpt>
      <trkpt lat="48.43367" lon="-4.47859">
        <ele>73.238</ele>
        <time>2011-04-07T07:18:15Z</time>
      </trkpt>
      <trkpt lat="48.43415" lon="-4.47882">
        <ele>73.77</ele>
        <time>2011-04-07T07:18:25Z</time>
      </trkpt>
      <trkpt lat="48.43461" lon="-4.47894">
        <ele>71.342</ele>
        <time>2011-04-07T07:18:33Z</time>
      </trkpt>
      <trkpt lat="48.43507" lon="-4.47897">
        <ele>68.305</ele>
        <time>2011-04-07T07:18:39Z</time>
      </trkpt>
      <trkpt lat="48.4355" lon="-4.47892">
        <ele>65.178</ele>
        <time>2011-04-07T07:18:44Z</time>
      </trkpt>
      <trkpt lat="48.43572" lon="-4.4789">
        <ele>61.447</ele>
        <time>2011-04-07T07:18:48Z</time>
      </trkpt>
      <trkpt lat="48.43654" lon="-4.47883">
        <ele>59.042</ele>
        <time>2011-04-07T07:18:55Z</time>
      </trkpt>
      <trkpt lat="48.43663" lon="-4.47882">
        <ele>58.432</ele>
        <time>2011-04-07T07:18:56Z</time>
      </trkpt>
      <trkpt lat="48.43711" lon="-4.47847">
        <ele>58.386</ele>
        <time>2011-04-07T07:19:02Z</time>
      </trkpt>
      <trkpt lat="48.43789" lon="-4.47744">
        <ele>60.917</ele>
        <time>2011-04-07T07:19:17Z</time>
      </trkpt>
      <trkpt lat="48.43867" lon="-4.47693">
        <ele>63.359</ele>
        <time>2011-04-07T07:19:32Z</time>
      </trkpt>
      <trkpt lat="48.43965" lon="-4.47681">
        <ele>66.078</ele>
        <time>2011-04-07T07:19:51Z</time>
      </trkpt>
      <trkpt lat="48.44027" lon="-4.47686">
        <ele>66.729</ele>
        <time>2011-04-07T07:20:03Z</time>
      </trkpt>
      <trkpt lat="48.44042" lon="-4.47688">
        <ele>66.387</ele>
        <time>2011-04-07T07:20:06Z</time>
      </trkpt>
      <trkpt lat="48.44067" lon="-4.47689">
        <ele>64.647</ele>
        <time>2011-04-07T07:20:10Z</time>
      </trkpt>
      <trkpt lat="48.44091" lon="-4.47689">
        <ele>63.762</ele>
        <time>2011-04-07T07:20:14Z</time>
      </trkpt>
      <trkpt lat="48.44117" lon="-4.47683">
        <ele>62.341</ele>
        <time>2011-04-07T07:20:17Z</time>
      </trkpt>
      <trkpt lat="48.44219" lon="-4.47637">
        <ele>63.065</ele>
        <time>2011-04-07T07:20:32Z</time>
      </trkpt>
      <trkpt lat="48.44258" lon="-4.4762">
        <ele>66.179</ele>
        <time>2011-04-07T07:20:40Z</time>
      </trkpt>
      <trkpt lat="48.44315" lon="-4.4759">
        <ele>69.535</ele>
        <time>2011-04-07T07:20:51Z</time>
      </trkpt>
      <trkpt lat="48.44325" lon="-4.47585">
        <ele>70.274</ele>
        <time>2011-04-07T07:20:53Z</time>
      </trkpt>
      <trkpt lat="48.44439" lon="-4.4753">
        <ele>70.519</ele>
        <time>2011-04-07T07:21:15Z</time>
      </trkpt>
      <trkpt lat="48.44453" lon="-4.47527">
        <ele>69.651</ele>
        <time>2011-04-07T07:21:17Z</time>
      </trkpt>
      <trkpt lat="48.44486" lon="-4.47522">
        <ele>66.564</ele>
        <time>2011-04-07T07:21:21Z</time>
      </trkpt>
      <trkpt lat="48.44513" lon="-4.47521">
        <ele>64.233</ele>
        <time>2011-04-07T07:21:24Z</time>
      </trkpt>
      <trkpt lat="48.44585" lon="-4.47566">
        <ele>60.057</ele>
        <time>2011-04-07T07:21:32Z</time>
      </trkpt>
      <trkpt lat="48.44662" lon="-4.47627">
        <ele>63.326</ele>
        <time>2011-04-07T07:21:43Z</time>
      </trkpt>
      <trkpt lat="48.44709" lon="-4.47642">
        <ele>66.508</ele>
        <time>2011-04-07T07:21:51Z</time>
      </trkpt>
      <trkpt lat="48.44773" lon="-4.47646">
        <ele>69.551</ele>
        <time>2011-04-07T07:22:04Z</time>
      </trkpt>
      <trkpt lat="48.44882" lon="-4.47627">
        <ele>70.91</ele>
        <time>2011-04-07T07:22:23Z</time>
      </trkpt>
      <trkpt lat="48.44916" lon="-4.47628">
        <ele>72.204</ele>
        <time>2011-04-07T07:22:30Z</time>
      </trkpt>
      <trkpt lat="48.44937" lon="-4.47597">
        <ele>73.508</ele>
        <time>2011-04-07T07:22:35Z</time>
      </trkpt>
      <trkpt lat="48.44967" lon="-4.47475">
        <ele>77.145</ele>
        <time>2011-04-07T07:22:52Z</time>
      </trkpt>
      <trkpt lat="48.44994" lon="-4.47352">
        <ele>79.441</ele>
        <time>2011-04-07T07:23:08Z</time>
      </trkpt>
      <trkpt lat="48.45005" lon="-4.47264">
        <ele>79.096</ele>
        <time>2011-04-07T07:23:22Z</time>
      </trkpt>
      <trkpt lat="48.45005" lon="-4.47229">
        <ele>77.898</ele>
        <time>2011-04-07T07:23:26Z</time>
      </trkpt>
      <trkpt lat="48.44994" lon="-4.4719">
        <ele>76.998</ele>
        <time>2011-04-07T07:23:28Z</time>
      </trkpt>
      <trkpt lat="48.45023" lon="-4.47169">
        <ele>76.649</ele>
        <time>2011-04-07T07:23:33Z</time>
      </trkpt>
      <trkpt lat="48.45031" lon="-4.4718">
        <ele>77.655</ele>
        <time>2011-04-07T07:23:35Z</time>
      </trkpt>
      <trkpt lat="48.45034" lon="-4.47193">
        <ele>77.849</ele>
        <time>2011-04-07T07:23:37Z</time>
      </trkpt>
      <trkpt lat="48.4506" lon="-4.47208">
        <ele>78.284</ele>
        <time>2011-04-07T07:23:41Z</time>
      </trkpt>
      <trkpt lat="48.45193" lon="-4.47226">
        <ele>81.05</ele>
        <time>2011-04-07T07:24:04Z</time>
      </trkpt>
      <trkpt lat="48.45376" lon="-4.47252">
        <ele>82.918</ele>
        <time>2011-04-07T07:24:36Z</time>
      </trkpt>
      <trkpt lat="48.45497" lon="-4.47321">
        <ele>85.845</ele>
        <time>2011-04-07T07:24:58Z</time>
      </trkpt>
      <trkpt lat="48.45596" lon="-4.47426">
        <ele>82.65</ele>
        <time>2011-04-07T07:25:17Z</time>
      </trkpt>
      <trkpt lat="48.45712" lon="-4.47539">
        <ele>86.201</ele>
        <time>2011-04-07T07:25:40Z</time>
      </trkpt>
      <trkpt lat="48.45821" lon="-4.47581">
        <ele>86.762</ele>
        <time>2011-04-07T07:25:59Z</time>
      </trkpt>
      <trkpt lat="48.45952" lon="-4.47573">
        <ele>85.587</ele>
        <time>2011-04-07T07:26:20Z</time>
      </trkpt>
      <trkpt lat="48.46081" lon="-4.47556">
        <ele>83.959</ele>
        <time>2011-04-07T07:26:40Z</time>
      </trkpt>
      <trkpt lat="48.46208" lon="-4.47579">
        <ele>81.093</ele>
        <time>2011-04-07T07:26:59Z</time>
      </trkpt>
      <trkpt lat="48.46335" lon="-4.47612">
        <ele>81.415</ele>
        <time>2011-04-07T07:27:17Z</time>
      </trkpt>
      <trkpt lat="48.46482" lon="-4.4765">
        <ele>77.852</ele>
        <time>2011-04-07T07:27:37Z</time>
      </trkpt>
      <trkpt lat="48.46548" lon="-4.47667">
        <ele>74.471</ele>
        <time>2011-04-07T07:27:45Z</time>
      </trkpt>
      <trkpt lat="48.46556" lon="-4.47669">
        <ele>74.427</ele>
        <time>2011-04-07T07:27:46Z</time>
      </trkpt>
      <trkpt lat="48.46702" lon="-4.47711">
        <ele>73.756</ele>
        <time>2011-04-07T07:28:06Z</time>
      </trkpt>
      <trkpt lat="48.46776" lon="-4.47754">
        <ele>77.379</ele>
        <time>2011-04-07T07:28:18Z</time>
      </trkpt>
      <trkpt lat="48.46781" lon="-4.47759">
        <ele>77.3</ele>
        <time>2011-04-07T07:28:19Z</time>
      </trkpt>
      <trkpt lat="48.46897" lon="-4.47882">
        <ele>75.32</ele>
        <time>2011-04-07T07:28:40Z</time>
      </trkpt>
      <trkpt lat="48.47041" lon="-4.48005">
        <ele>75.472</ele>
        <time>2011-04-07T07:29:03Z</time>
      </trkpt>
      <trkpt lat="48.47249" lon="-4.48155">
        <ele>77.832</ele>
        <time>2011-04-07T07:29:36Z</time>
      </trkpt>
      <trkpt lat="48.47255" lon="-4.4816">
        <ele>77.738</ele>
        <time>2011-04-07T07:29:37Z</time>
      </trkpt>
      <trkpt lat="48.47417" lon="-4.48323">
        <ele>77.668</ele>
        <time>2011-04-07T07:30:05Z</time>
      </trkpt>
      <trkpt lat="48.47527" lon="-4.48431">
        <ele>74.458</ele>
        <time>2011-04-07T07:30:22Z</time>
      </trkpt>
      <trkpt lat="48.47557" lon="-4.48464">
        <ele>72.479</ele>
        <time>2011-04-07T07:30:26Z</time>
      </trkpt>
      <trkpt lat="48.47614" lon="-4.48536">
        <ele>69.941</ele>
        <time>2011-04-07T07:30:34Z</time>
      </trkpt>
      <trkpt lat="48.477" lon="-4.48668">
        <ele>66.813</ele>
        <time>2011-04-07T07:30:47Z</time>
      </trkpt>
      <trkpt lat="48.47764" lon="-4.48775">
        <ele>63.773</ele>
        <time>2011-04-07T07:30:57Z</time>
      </trkpt>
      <trkpt lat="48.4777" lon="-4.48785">
        <ele>63.559</ele>
        <time>2011-04-07T07:30:58Z</time>
      </trkpt>
      <trkpt lat="48.47862" lon="-4.48991">
        <ele>63.185</ele>
        <time>2011-04-07T07:31:17Z</time>
      </trkpt>
      <trkpt lat="48.47976" lon="-4.49305">
        <ele>62.295</ele>
        <time>2011-04-07T07:31:48Z</time>
      </trkpt>
      <trkpt lat="48.48077" lon="-4.49491">
        <ele>61.765</ele>
        <time>2011-04-07T07:32:10Z</time>
      </trkpt>
      <trkpt lat="48.48196" lon="-4.49653">
        <ele>64.374</ele>
        <time>2011-04-07T07:32:34Z</time>
      </trkpt>
      <trkpt lat="48.48308" lon="-4.4976">
        <ele>67.405</ele>
        <time>2011-04-07T07:32:55Z</time>
      </trkpt>
      <trkpt lat="48.48375" lon="-4.49817">
        <ele>70.491</ele>
        <time>2011-04-07T07:33:08Z</time>
      </trkpt>
      <trkpt lat="48.48452" lon="-4.49883">
        <ele>73.774</ele>
        <time>2011-04-07T07:33:23Z</time>
      </trkpt>
      <trkpt lat="48.48592" lon="-4.49997">
        <ele>70.688</ele>
        <time>2011-04-07T07:33:46Z</time>
      </trkpt>
      <trkpt lat="48.48752" lon="-4.50059">
        <ele>68</ele>
        <time>2011-04-07T07:34:08Z</time>
      </trkpt>
      <trkpt lat="48.48833" lon="-4.50075">
        <ele>64.995</ele>
        <time>2011-04-07T07:34:20Z</time>
      </trkpt>
      <trkpt lat="48.48919" lon="-4.50096">
        <ele>61.297</ele>
        <time>2011-04-07T07:34:31Z</time>
      </trkpt>
      <trkpt lat="48.4903" lon="-4.5011">
        <ele>57.66</ele>
        <time>2011-04-07T07:34:41Z</time>
      </trkpt>
      <trkpt lat="48.49049" lon="-4.50106">
        <ele>57.465</ele>
        <time>2011-04-07T07:34:43Z</time>
      </trkpt>
      <trkpt lat="48.49082" lon="-4.501">
        <ele>57.2</ele>
        <time>2011-04-07T07:34:47Z</time>
      </trkpt>
      <trkpt lat="48.49121" lon="-4.50075">
        <ele>56.305</ele>
        <time>2011-04-07T07:34:53Z</time>
      </trkpt>
      <trkpt lat="48.49121" lon="-4.50075">
        <ele>56.254</ele>
        <time>2011-04-07T07:34:54Z</time>
      </trkpt>
      <trkpt lat="48.49119" lon="-4.50111">
        <ele>56.481</ele>
        <time>2011-04-07T07:34:56Z</time>
      </trkpt>
      <trkpt lat="48.49153" lon="-4.50151">
        <ele>55.877</ele>
        <time>2011-04-07T07:35:01Z</time>
      </trkpt>
      <trkpt lat="48.49343" lon="-4.50192">
        <ele>57.692</ele>
        <time>2011-04-07T07:35:28Z</time>
      </trkpt>
      <trkpt lat="48.49464" lon="-4.50218">
        <ele>59.277</ele>
        <time>2011-04-07T07:35:48Z</time>
      </trkpt>
      <trkpt lat="48.49601" lon="-4.50259">
        <ele>62.328</ele>
        <time>2011-04-07T07:36:13Z</time>
      </trkpt>
      <trkpt lat="48.49692" lon="-4.5033">
        <ele>58.751</ele>
        <time>2011-04-07T07:36:30Z</time>
      </trkpt>
      <trkpt lat="48.49753" lon="-4.50383">
        <ele>55.6</ele>
        <time>2011-04-07T07:36:39Z</time>
      </trkpt>
      <trkpt lat="48.49855" lon="-4.50474">
        <ele>54.984</ele>
        <time>2011-04-07T07:36:56Z</time>
      </trkpt>
      <trkpt lat="48.49897" lon="-4.50536">
        <ele>55.473</ele>
        <time>2011-04-07T07:37:06Z</time>
      </trkpt>
      <trkpt lat="48.49895" lon="-4.50572">
        <ele>54.936</ele>
        <time>2011-04-07T07:37:11Z</time>
      </trkpt>
      <trkpt lat="48.49877" lon="-4.50613">
        <ele>54.869</ele>
        <time>2011-04-07T07:37:17Z</time>
      </trkpt>
      <trkpt lat="48.49857" lon="-4.50656">
        <ele>56.139</ele>
        <time>2011-04-07T07:37:24Z</time>
      </trkpt>
      <trkpt lat="48.49813" lon="-4.50736">
        <ele>59.008</ele>
        <time>2011-04-07T07:37:39Z</time>
      </trkpt>
      <trkpt lat="48.49778" lon="-4.50812">
        <ele>60.478</ele>
        <time>2011-04-07T07:37:53Z</time>
      </trkpt>
      <trkpt lat="48.49736" lon="-4.50915">
        <ele>59.155</ele>
        <time>2011-04-07T07:38:08Z</time>
      </trkpt>
      <trkpt lat="48.49725" lon="-4.50932">
        <ele>59.651</ele>
        <time>2011-04-07T07:38:11Z</time>
      </trkpt>
      <trkpt lat="48.49708" lon="-4.50942">
        <ele>60.345</ele>
        <time>2011-04-07T07:38:15Z</time>
      </trkpt>
      <trkpt lat="48.49665" lon="-4.50958">
        <ele>62.891</ele>
        <time>2011-04-07T07:38:25Z</time>
      </trkpt>
      <trkpt lat="48.49611" lon="-4.50978">
        <ele>65.96</ele>
        <time>2011-04-07T07:38:38Z</time>
      </trkpt>
      <trkpt lat="48.49557" lon="-4.50995">
        <ele>69.255</ele>
        <time>2011-04-07T07:38:50Z</time>
      </trkpt>
      <trkpt lat="48.49463" lon="-4.50985">
        <ele>68.762</ele>
        <time>2011-04-07T07:39:07Z</time>
      </trkpt>
      <trkpt lat="48.49445" lon="-4.50987">
        <ele>68.609</ele>
        <time>2011-04-07T07:39:10Z</time>
      </trkpt>
      <trkpt lat="48.49346" lon="-4.51029">
        <ele>71.828</ele>
        <time>2011-04-07T07:39:28Z</time>
      </trkpt>
      <trkpt lat="48.49245" lon="-4.51075">
        <ele>73.009</ele>
        <time>2011-04-07T07:39:46Z</time>
      </trkpt>
      <trkpt lat="48.49116" lon="-4.51135">
        <ele>70.937</ele>
        <time>2011-04-07T07:40:09Z</time>
      </trkpt>
      <trkpt lat="48.49022" lon="-4.51211">
        <ele>70.946</ele>
        <time>2011-04-07T07:40:25Z</time>
      </trkpt>
      <trkpt lat="48.48908" lon="-4.5128">
        <ele>72.18</ele>
        <time>2011-04-07T07:40:47Z</time>
      </trkpt>
      <trkpt lat="48.4877" lon="-4.51364">
        <ele>75.594</ele>
        <time>2011-04-07T07:41:15Z</time>
      </trkpt>
      <trkpt lat="48.48741" lon="-4.51381">
        <ele>76.049</ele>
        <time>2011-04-07T07:41:21Z</time>
      </trkpt>
      <trkpt lat="48.48719" lon="-4.51413">
        <ele>77.509</ele>
        <time>2011-04-07T07:41:27Z</time>
      </trkpt>
      <trkpt lat="48.48643" lon="-4.51583">
        <ele>76.884</ele>
        <time>2011-04-07T07:41:51Z</time>
      </trkpt>
      <trkpt lat="48.4863" lon="-4.51612">
        <ele>77.108</ele>
        <time>2011-04-07T07:41:55Z</time>
      </trkpt>
      <trkpt lat="48.48564" lon="-4.51753">
        <ele>77.054</ele>
        <time>2011-04-07T07:42:15Z</time>
      </trkpt>
      <trkpt lat="48.48487" lon="-4.51887">
        <ele>76.253</ele>
        <time>2011-04-07T07:42:35Z</time>
      </trkpt>
      <trkpt lat="48.48398" lon="-4.51959">
        <ele>76.46</ele>
        <time>2011-04-07T07:42:53Z</time>
      </trkpt>
      <trkpt lat="48.48277" lon="-4.52031">
        <ele>75.4</ele>
        <time>2011-04-07T07:43:15Z</time>
      </trkpt>
      <trkpt lat="48.48231" lon="-4.52059">
        <ele>74.9</ele>
        <time>2011-04-07T07:43:23Z</time>
      </trkpt>
      <trkpt lat="48.48215" lon="-4.52077">
        <ele>74.237</ele>
        <time>2011-04-07T07:43:26Z</time>
      </trkpt>
      <trkpt lat="48.48154" lon="-4.52202">
        <ele>72.173</ele>
        <time>2011-04-07T07:43:41Z</time>
      </trkpt>
      <trkpt lat="48.48147" lon="-4.52219">
        <ele>71.926</ele>
        <time>2011-04-07T07:43:43Z</time>
      </trkpt>
      <trkpt lat="48.48116" lon="-4.52248">
        <ele>73.384</ele>
        <time>2011-04-07T07:43:49Z</time>
      </trkpt>
      <trkpt lat="48.48007" lon="-4.52285">
        <ele>71.901</ele>
        <time>2011-04-07T07:44:06Z</time>
      </trkpt>
      <trkpt lat="48.47954" lon="-4.52368">
        <ele>72.549</ele>
        <time>2011-04-07T07:44:17Z</time>
      </trkpt>
      <trkpt lat="48.47915" lon="-4.52461">
        <ele>75.751</ele>
        <time>2011-04-07T07:44:29Z</time>
      </trkpt>
      <trkpt lat="48.47846" lon="-4.52598">
        <ele>77.599</ele>
        <time>2011-04-07T07:44:49Z</time>
      </trkpt>
      <trkpt lat="48.47769" lon="-4.5274">
        <ele>77.286</ele>
        <time>2011-04-07T07:45:11Z</time>
      </trkpt>
      <trkpt lat="48.47752" lon="-4.52787">
        <ele>77.019</ele>
        <time>2011-04-07T07:45:21Z</time>
      </trkpt>
      <trkpt lat="48.47707" lon="-4.52896">
        <ele>75.797</ele>
        <time>2011-04-07T07:45:35Z</time>
      </trkpt>
      <trkpt lat="48.47648" lon="-4.53099">
        <ele>77.464</ele>
        <time>2011-04-07T07:46:00Z</time>
      </trkpt>
      <trkpt lat="48.47592" lon="-4.53237">
        <ele>79.823</ele>
        <time>2011-04-07T07:46:20Z</time>
      </trkpt>
      <trkpt lat="48.47531" lon="-4.53368">
        <ele>82.506</ele>
        <time>2011-04-07T07:46:40Z</time>
      </trkpt>
      <trkpt lat="48.47525" lon="-4.53382">
        <ele>82.33</ele>
        <time>2011-04-07T07:46:42Z</time>
      </trkpt>
      <trkpt lat="48.47473" lon="-4.53501">
        <ele>80.618</ele>
        <time>2011-04-07T07:46:58Z</time>
      </trkpt>
      <trkpt lat="48.47434" lon="-4.53596">
        <ele>79.557</ele>
        <time>2011-04-07T07:47:09Z</time>
      </trkpt>
      <trkpt lat="48.47437" lon="-4.53645">
        <ele>79.497</ele>
        <time>2011-04-07T07:47:14Z</time>
      </trkpt>
      <trkpt lat="48.47447" lon="-4.53697">
        <ele>80.374</ele>
        <time>2011-04-07T07:47:21Z</time>
      </trkpt>
      <trkpt lat="48.47442" lon="-4.53759">
        <ele>80.329</ele>
        <time>2011-04-07T07:47:26Z</time>
      </trkpt>
      <trkpt lat="48.47379" lon="-4.53961">
        <ele>79.379</ele>
        <time>2011-04-07T07:47:49Z</time>
      </trkpt>
      <trkpt lat="48.47292" lon="-4.54141">
        <ele>81.159</ele>
        <time>2011-04-07T07:48:13Z</time>
      </trkpt>
      <trkpt lat="48.47273" lon="-4.54269">
        <ele>82.003</ele>
        <time>2011-04-07T07:48:28Z</time>
      </trkpt>
      <trkpt lat="48.4724" lon="-4.5442">
        <ele>83.348</ele>
        <time>2011-04-07T07:48:46Z</time>
      </trkpt>
      <trkpt lat="48.47172" lon="-4.54533">
        <ele>83.94</ele>
        <time>2011-04-07T07:49:04Z</time>
      </trkpt>
      <trkpt lat="48.47138" lon="-4.54583">
        <ele>83.377</ele>
        <time>2011-04-07T07:49:12Z</time>
      </trkpt>
      <trkpt lat="48.4712" lon="-4.5463">
        <ele>83.874</ele>
        <time>2011-04-07T07:49:18Z</time>
      </trkpt>
      <trkpt lat="48.47093" lon="-4.54824">
        <ele>84.227</ele>
        <time>2011-04-07T07:49:40Z</time>
      </trkpt>
      <trkpt lat="48.47097" lon="-4.55035">
        <ele>84.123</ele>
        <time>2011-04-07T07:50:03Z</time>
      </trkpt>
      <trkpt lat="48.47075" lon="-4.55195">
        <ele>81.075</ele>
        <time>2011-04-07T07:50:19Z</time>
      </trkpt>
      <trkpt lat="48.47055" lon="-4.55325">
        <ele>77.99</ele>
        <time>2011-04-07T07:50:31Z</time>
      </trkpt>
      <trkpt lat="48.47019" lon="-4.55527">
        <ele>78.232</ele>
        <time>2011-04-07T07:50:50Z</time>
      </trkpt>
      <trkpt lat="48.47005" lon="-4.55674">
        <ele>75.954</ele>
        <time>2011-04-07T07:51:05Z</time>
      </trkpt>
      <trkpt lat="48.47005" lon="-4.5573">
        <ele>73.944</ele>
        <time>2011-04-07T07:51:10Z</time>
      </trkpt>
      <trkpt lat="48.46998" lon="-4.55803">
        <ele>70.643</ele>
        <time>2011-04-07T07:51:16Z</time>
      </trkpt>
      <trkpt lat="48.4698" lon="-4.55878">
        <ele>67.425</ele>
        <time>2011-04-07T07:51:22Z</time>
      </trkpt>
      <trkpt lat="48.46934" lon="-4.56048">
        <ele>69.656</ele>
        <time>2011-04-07T07:51:38Z</time>
      </trkpt>
      <trkpt lat="48.46904" lon="-4.56159">
        <ele>72.69</ele>
        <time>2011-04-07T07:51:52Z</time>
      </trkpt>
      <trkpt lat="48.46876" lon="-4.56253">
        <ele>75.976</ele>
        <time>2011-04-07T07:52:05Z</time>
      </trkpt>
      <trkpt lat="48.46847" lon="-4.56318">
        <ele>78.051</ele>
        <time>2011-04-07T07:52:15Z</time>
      </trkpt>
      <trkpt lat="48.46777" lon="-4.56408">
        <ele>78.946</ele>
        <time>2011-04-07T07:52:32Z</time>
      </trkpt>
      <trkpt lat="48.46764" lon="-4.56433">
        <ele>79.281</ele>
        <time>2011-04-07T07:52:36Z</time>
      </trkpt>
      <trkpt lat="48.46745" lon="-4.56451">
        <ele>79.137</ele>
        <time>2011-04-07T07:52:40Z</time>
      </trkpt>
      <trkpt lat="48.46733" lon="-4.56464">
        <ele>79.331</ele>
        <time>2011-04-07T07:52:43Z</time>
      </trkpt>
      <trkpt lat="48.46704" lon="-4.56514">
        <ele>79.729</ele>
        <time>2011-04-07T07:52:50Z</time>
      </trkpt>
      <trkpt lat="48.46693" lon="-4.56565">
        <ele>80.402</ele>
        <time>2011-04-07T07:52:57Z</time>
      </trkpt>
      <trkpt lat="48.46651" lon="-4.56637">
        <ele>81.089</ele>
        <time>2011-04-07T07:53:08Z</time>
      </trkpt>
      <trkpt lat="48.46588" lon="-4.56791">
        <ele>82.836</ele>
        <time>2011-04-07T07:53:29Z</time>
      </trkpt>
      <trkpt lat="48.46537" lon="-4.56905">
        <ele>84.246</ele>
        <time>2011-04-07T07:53:45Z</time>
      </trkpt>
      <trkpt lat="48.46525" lon="-4.56928">
        <ele>84.522</ele>
        <time>2011-04-07T07:53:49Z</time>
      </trkpt>
      <trkpt lat="48.46504" lon="-4.57054">
        <ele>84.806</ele>
        <time>2011-04-07T07:54:04Z</time>
      </trkpt>
      <trkpt lat="48.46484" lon="-4.57178">
        <ele>84.477</ele>
        <time>2011-04-07T07:54:17Z</time>
      </trkpt>
      <trkpt lat="48.4646" lon="-4.57227">
        <ele>83.131</ele>
        <time>2011-04-07T07:54:23Z</time>
      </trkpt>
      <trkpt lat="48.46367" lon="-4.57398">
        <ele>81.241</ele>
        <time>2011-04-07T07:54:43Z</time>
      </trkpt>
      <trkpt lat="48.463" lon="-4.57556">
        <ele>80.893</ele>
        <time>2011-04-07T07:55:00Z</time>
      </trkpt>
      <trkpt lat="48.46199" lon="-4.57802">
        <ele>82.97</ele>
        <time>2011-04-07T07:55:28Z</time>
      </trkpt>
      <trkpt lat="48.46188" lon="-4.57828">
        <ele>82.893</ele>
        <time>2011-04-07T07:55:31Z</time>
      </trkpt>
      <trkpt lat="48.46183" lon="-4.57889">
        <ele>82.194</ele>
        <time>2011-04-07T07:55:37Z</time>
      </trkpt>
      <trkpt lat="48.46152" lon="-4.58078">
        <ele>83.639</ele>
        <time>2011-04-07T07:55:58Z</time>
      </trkpt>
      <trkpt lat="48.4615" lon="-4.58218">
        <ele>86.146</ele>
        <time>2011-04-07T07:56:15Z</time>
      </trkpt>
      <trkpt lat="48.46172" lon="-4.58266">
        <ele>86.105</ele>
        <time>2011-04-07T07:56:22Z</time>
      </trkpt>
      <trkpt lat="48.46267" lon="-4.58396">
        <ele>83.045</ele>
        <time>2011-04-07T07:56:42Z</time>
      </trkpt>
      <trkpt lat="48.46368" lon="-4.58554">
        <ele>82.842</ele>
        <time>2011-04-07T07:57:04Z</time>
      </trkpt>
      <trkpt lat="48.46502" lon="-4.58778">
        <ele>83.338</ele>
        <time>2011-04-07T07:57:37Z</time>
      </trkpt>
      <trkpt lat="48.46623" lon="-4.58979">
        <ele>81.866</ele>
        <time>2011-04-07T07:58:05Z</time>
      </trkpt>
      <trkpt lat="48.46719" lon="-4.59144">
        <ele>84.188</ele>
        <time>2011-04-07T07:58:30Z</time>
      </trkpt>
      <trkpt lat="48.46811" lon="-4.59319">
        <ele>81.662</ele>
        <time>2011-04-07T07:58:53Z</time>
      </trkpt>
      <trkpt lat="48.46931" lon="-4.59584">
        <ele>82.395</ele>
        <time>2011-04-07T07:59:27Z</time>
      </trkpt>
      <trkpt lat="48.46996" lon="-4.59756">
        <ele>84.192</ele>
        <time>2011-04-07T07:59:50Z</time>
      </trkpt>
      <trkpt lat="48.47023" lon="-4.59959">
        <ele>84.945</ele>
        <time>2011-04-07T08:00:14Z</time>
      </trkpt>
      <trkpt lat="48.47049" lon="-4.60166">
        <ele>85.932</ele>
        <time>2011-04-07T08:00:37Z</time>
      </trkpt>
      <trkpt lat="48.47064" lon="-4.60263">
        <ele>87.42</ele>
        <time>2011-04-07T08:00:48Z</time>
      </trkpt>
      <trkpt lat="48.47065" lon="-4.60411">
        <ele>89.96</ele>
        <time>2011-04-07T08:01:04Z</time>
      </trkpt>
      <trkpt lat="48.47084" lon="-4.60558">
        <ele>88.463</ele>
        <time>2011-04-07T08:01:19Z</time>
      </trkpt>
      <trkpt lat="48.47117" lon="-4.60649">
        <ele>86.183</ele>
        <time>2011-04-07T08:01:29Z</time>
      </trkpt>
      <trkpt lat="48.47194" lon="-4.60843">
        <ele>83.672</ele>
        <time>2011-04-07T08:01:49Z</time>
      </trkpt>
      <trkpt lat="48.47219" lon="-4.6099">
        <ele>86.303</ele>
        <time>2011-04-07T08:02:04Z</time>
      </trkpt>
      <trkpt lat="48.47252" lon="-4.61282">
        <ele>87.395</ele>
        <time>2011-04-07T08:02:34Z</time>
      </trkpt>
      <trkpt lat="48.47259" lon="-4.61444">
        <ele>84.348</ele>
        <time>2011-04-07T08:02:49Z</time>
      </trkpt>
      <trkpt lat="48.47216" lon="-4.61544">
        <ele>84.352</ele>
        <time>2011-04-07T08:03:00Z</time>
      </trkpt>
      <trkpt lat="48.47118" lon="-4.61699">
        <ele>87.384</ele>
        <time>2011-04-07T08:03:22Z</time>
      </trkpt>
      <trkpt lat="48.47087" lon="-4.61815">
        <ele>88.855</ele>
        <time>2011-04-07T08:03:36Z</time>
      </trkpt>
      <trkpt lat="48.47095" lon="-4.61965">
        <ele>90.306</ele>
        <time>2011-04-07T08:03:53Z</time>
      </trkpt>
      <trkpt lat="48.47105" lon="-4.62155">
        <ele>90.366</ele>
        <time>2011-04-07T08:04:14Z</time>
      </trkpt>
      <trkpt lat="48.4713" lon="-4.62345">
        <ele>90.889</ele>
        <time>2011-04-07T08:04:35Z</time>
      </trkpt>
      <trkpt lat="48.47155" lon="-4.62503">
        <ele>93.936</ele>
        <time>2011-04-07T08:04:54Z</time>
      </trkpt>
      <trkpt lat="48.47172" lon="-4.62649">
        <ele>94.68</ele>
        <time>2011-04-07T08:05:11Z</time>
      </trkpt>
      <trkpt lat="48.47163" lon="-4.62695">
        <ele>93.863</ele>
        <time>2011-04-07T08:05:16Z</time>
      </trkpt>
      <trkpt lat="48.47111" lon="-4.62857">
        <ele>93.65</ele>
        <time>2011-04-07T08:05:35Z</time>
      </trkpt>
      <trkpt lat="48.47104" lon="-4.63019">
        <ele>93.157</ele>
        <time>2011-04-07T08:05:52Z</time>
      </trkpt>
      <trkpt lat="48.47097" lon="-4.63188">
        <ele>89.877</ele>
        <time>2011-04-07T08:06:09Z</time>
      </trkpt>
      <trkpt lat="48.47096" lon="-4.63199">
        <ele>89.728</ele>
        <time>2011-04-07T08:06:10Z</time>
      </trkpt>
      <trkpt lat="48.47092" lon="-4.63286">
        <ele>88.635</ele>
        <time>2011-04-07T08:06:18Z</time>
      </trkpt>
      <trkpt lat="48.47104" lon="-4.63451">
        <ele>86.955</ele>
        <time>2011-04-07T08:06:34Z</time>
      </trkpt>
      <trkpt lat="48.47122" lon="-4.6361">
        <ele>87.906</ele>
        <time>2011-04-07T08:06:50Z</time>
      </trkpt>
      <trkpt lat="48.4717" lon="-4.63671">
        <ele>86.599</ele>
        <time>2011-04-07T08:07:00Z</time>
      </trkpt>
      <trkpt lat="48.47265" lon="-4.63727">
        <ele>84.701</ele>
        <time>2011-04-07T08:07:14Z</time>
      </trkpt>
      <trkpt lat="48.47302" lon="-4.63762">
        <ele>85.274</ele>
        <time>2011-04-07T08:07:21Z</time>
      </trkpt>
      <trkpt lat="48.4732" lon="-4.63801">
        <ele>86.636</ele>
        <time>2011-04-07T08:07:34Z</time>
      </trkpt>
    </trkseg>
  </trk>
</gpx>